Airfield :
LOGIN :

Register | Disclaimer

   EN    FR    IT 

 










Legend :    VFR   Marginal VFR   IFR   Intensive IFR   Very Intensive IFR
Visi :
Ceiling :
>= 8 km
>= 3000ft
5 to 8 km
1000 to 3000 ft
1500m to 5 km
500 to 1000 ft
800 to 1500m
200 to 500 ft
< 800m
< 200 ft
Symbols :   Thunderstorms  Fog  Heavy snow  Heavy precipitations  Wind > 20 kt
SIGMETs :     Misc.  Thunderstorms  Icing  Turbulence  Mountain Waves  Volcanic Ashes






- Airport Elevation : 526 ft
- IATA code : LTN


EGGW - London Luton

CURRENT METAR :
  • 101020Z 18013KT 9999 -RA BKN012 OVC017 07/06 Q1014

EXPIRED METARs :
  • 100950Z AUTO 19012G22KT 150V220 9999 -RA BKN015 07/06 Q1014
  • 100920Z AUTO 19012KT 9999 SCT011 BKN017 BKN021 07/05 Q1015
  • 100850Z AUTO 19015G28KT 9999 SCT011 SCT016 BKN024 06/05 Q1016
  • 100820Z AUTO 18011KT 9999 SCT012 BKN017 BKN025 05/04 Q1016

TAF AMD TAF EGGW
Valid from the 10 at 08:00 until the 11 at 06:00 UTC


100818Z 1008/1106 19020G30KT 9999 SCT008 BKN020
PROB30
TEMPO 1008/1012 6000 RA BKN010
TEMPO 1012/1020 19025G40KT 6000 RA BKN008
PROB30
TEMPO 1016/1020 3000 +RA BKN004
BECMG 1020/1022 27012KT
TEMPO 1020/1022 4000 RA BKN008
BECMG 1022/1024 21006KT CAVOK
ATIS : +44 1582 395 204



MET'MAP, your aeronautical weather chart ! - Copyright ORBIFLY December 2007 - Disclaimer

ORBIFLY MET'MAP TEAM :

Programming & Development : Alexandra Zaïnal
Concept & original design : Baudouin d'Aumeries
Assistance for programming : Marc-Olivier Méhu
Technical & hardware support : Manuel Goepfert

Contact : metmap@orbifly.com




SOURCES & CREDITS :

   NOAA